sensor_id;sensor_type;location;lat;lon;timestamp;pressure;altitude;pressure_sealevel;temperature
67353;BMP180;54238;52.278;21.056;2023-12-20T00:01:38;99556.80;;;6.32
67353;BMP180;54238;52.278;21.056;2023-12-20T00:04:06;99557.80;;;6.32
67353;BMP180;54238;52.278;21.056;2023-12-20T00:06:38;99566.20;;;6.30
67353;BMP180;54238;52.278;21.056;2023-12-20T00:09:13;99546.00;;;6.30
67353;BMP180;54238;52.278;21.056;2023-12-20T00:11:42;99553.20;;;6.30
67353;BMP180;54238;52.278;21.056;2023-12-20T00:14:13;99543.00;;;6.30
67353;BMP180;54238;52.278;21.056;2023-12-20T00:16:45;99546.80;;;6.30
67353;BMP180;54238;52.278;21.056;2023-12-20T00:19:14;99533.80;;;6.30
67353;BMP180;54238;52.278;21.056;2023-12-20T00:21:46;99544.80;;;6.30
67353;BMP180;54238;52.278;21.056;2023-12-20T00:24:15;99537.20;;;6.30
67353;BMP180;54238;52.278;21.056;2023-12-20T00:26:47;99546.60;;;6.30
67353;BMP180;54238;52.278;21.056;2023-12-20T00:29:19;99536.00;;;6.34
67353;BMP180;54238;52.278;21.056;2023-12-20T00:31:46;99540.40;;;6.32
67353;BMP180;54238;52.278;21.056;2023-12-20T00:34:13;99542.60;;;6.36
67353;BMP180;54238;52.278;21.056;2023-12-20T00:36:43;99535.40;;;6.38
67353;BMP180;54238;52.278;21.056;2023-12-20T00:39:17;99540.60;;;6.36
67353;BMP180;54238;52.278;21.056;2023-12-20T00:41:49;99528.00;;;6.40
67353;BMP180;54238;52.278;21.056;2023-12-20T00:44:16;99535.00;;;6.40
67353;BMP180;54238;52.278;21.056;2023-12-20T00:46:45;99524.20;;;6.40
67353;BMP180;54238;52.278;21.056;2023-12-20T00:49:12;99536.60;;;6.40
67353;BMP180;54238;52.278;21.056;2023-12-20T00:51:41;99519.60;;;6.40
67353;BMP180;54238;52.278;21.056;2023-12-20T00:54:11;99517.60;;;6.40
67353;BMP180;54238;52.278;21.056;2023-12-20T00:56:43;99524.60;;;6.40
67353;BMP180;54238;52.278;21.056;2023-12-20T00:59:13;99513.80;;;6.40
67353;BMP180;54238;52.278;21.056;2023-12-20T01:01:48;99516.60;;;6.40
67353;BMP180;54238;52.278;21.056;2023-12-20T01:04:17;99513.60;;;6.40
67353;BMP180;54238;52.278;21.056;2023-12-20T01:06:49;99512.20;;;6.40
67353;BMP180;54238;52.278;21.056;2023-12-20T01:09:21;99512.40;;;6.40
67353;BMP180;54238;52.278;21.056;2023-12-20T01:11:53;99511.20;;;6.40
67353;BMP180;54238;52.278;21.056;2023-12-20T01:14:20;99517.60;;;6.40
67353;BMP180;54238;52.278;21.056;2023-12-20T01:16:49;99510.80;;;6.40
67353;BMP180;54238;52.278;21.056;2023-12-20T01:19:22;99507.60;;;6.40
67353;BMP180;54238;52.278;21.056;2023-12-20T01:21:50;99508.80;;;6.40
67353;BMP180;54238;52.278;21.056;2023-12-20T01:24:22;99506.60;;;6.40
67353;BMP180;54238;52.278;21.056;2023-12-20T01:26:49;99508.00;;;6.40
67353;BMP180;54238;52.278;21.056;2023-12-20T01:29:21;99498.00;;;6.40
67353;BMP180;54238;52.278;21.056;2023-12-20T01:31:48;99493.00;;;6.40
67353;BMP180;54238;52.278;21.056;2023-12-20T01:34:18;99495.20;;;6.40
67353;BMP180;54238;52.278;21.056;2023-12-20T01:36:50;99496.80;;;6.40
67353;BMP180;54238;52.278;21.056;2023-12-20T01:39:19;99489.20;;;6.42
67353;BMP180;54238;52.278;21.056;2023-12-20T01:41:49;99487.80;;;6.48
67353;BMP180;54238;52.278;21.056;2023-12-20T01:44:18;99486.20;;;6.40
67353;BMP180;54238;52.278;21.056;2023-12-20T01:46:46;99481.00;;;6.40
67353;BMP180;54238;52.278;21.056;2023-12-20T01:49:16;99484.40;;;6.42
67353;BMP180;54238;52.278;21.056;2023-12-20T01:51:43;99498.80;;;6.40
67353;BMP180;54238;52.278;21.056;2023-12-20T01:54:13;99484.80;;;6.44
67353;BMP180;54238;52.278;21.056;2023-12-20T01:56:43;99474.40;;;6.48
67353;BMP180;54238;52.278;21.056;2023-12-20T01:59:17;99470.20;;;6.50
67353;BMP180;54238;52.278;21.056;2023-12-20T02:01:44;99472.20;;;6.48
67353;BMP180;54238;52.278;21.056;2023-12-20T02:04:12;99472.20;;;6.44
67353;BMP180;54238;52.278;21.056;2023-12-20T02:06:46;99471.40;;;6.50
67353;BMP180;54238;52.278;21.056;2023-12-20T02:09:15;99474.00;;;6.50
67353;BMP180;54238;52.278;21.056;2023-12-20T02:11:43;99471.80;;;6.50
67353;BMP180;54238;52.278;21.056;2023-12-20T02:14:10;99471.40;;;6.50
67353;BMP180;54238;52.278;21.056;2023-12-20T02:16:37;99469.60;;;6.50
67353;BMP180;54238;52.278;21.056;2023-12-20T02:19:14;99465.40;;;6.48
67353;BMP180;54238;52.278;21.056;2023-12-20T02:21:46;99460.40;;;6.50
67353;BMP180;54238;52.278;21.056;2023-12-20T02:24:17;99453.20;;;6.50
67353;BMP180;54238;52.278;21.056;2023-12-20T02:26:47;99455.20;;;6.50
67353;BMP180;54238;52.278;21.056;2023-12-20T02:29:16;99457.00;;;6.50
67353;BMP180;54238;52.278;21.056;2023-12-20T02:31:43;99458.00;;;6.50
67353;BMP180;54238;52.278;21.056;2023-12-20T02:34:12;99460.20;;;6.50
67353;BMP180;54238;52.278;21.056;2023-12-20T02:36:39;99450.80;;;6.48
67353;BMP180;54238;52.278;21.056;2023-12-20T02:39:08;99441.00;;;6.50
67353;BMP180;54238;52.278;21.056;2023-12-20T02:41:38;99439.40;;;6.50
67353;BMP180;54238;52.278;21.056;2023-12-20T02:44:07;99442.20;;;6.50
67353;BMP180;54238;52.278;21.056;2023-12-20T02:46:39;99436.00;;;6.50
67353;BMP180;54238;52.278;21.056;2023-12-20T02:49:07;99428.40;;;6.50
67353;BMP180;54238;52.278;21.056;2023-12-20T02:51:37;99433.80;;;6.50
67353;BMP180;54238;52.278;21.056;2023-12-20T02:54:10;99430.40;;;6.50
67353;BMP180;54238;52.278;21.056;2023-12-20T02:56:40;99427.80;;;6.50
67353;BMP180;54238;52.278;21.056;2023-12-20T02:59:09;99426.40;;;6.50
67353;BMP180;54238;52.278;21.056;2023-12-20T03:01:43;99423.00;;;6.50
67353;BMP180;54238;52.278;21.056;2023-12-20T03:04:15;99428.80;;;6.50
67353;BMP180;54238;52.278;21.056;2023-12-20T03:06:47;99424.60;;;6.46
67353;BMP180;54238;52.278;21.056;2023-12-20T03:09:18;99420.60;;;6.40
67353;BMP180;54238;52.278;21.056;2023-12-20T03:11:45;99420.20;;;6.40
67353;BMP180;54238;52.278;21.056;2023-12-20T03:14:17;99416.80;;;6.40
67353;BMP180;54238;52.278;21.056;2023-12-20T03:16:49;99423.20;;;6.40
67353;BMP180;54238;52.278;21.056;2023-12-20T03:19:20;99416.60;;;6.40
67353;BMP180;54238;52.278;21.056;2023-12-20T03:21:49;99410.00;;;6.40
67353;BMP180;54238;52.278;21.056;2023-12-20T03:24:20;99405.20;;;6.46
67353;BMP180;54238;52.278;21.056;2023-12-20T03:26:47;99411.40;;;6.48
67353;BMP180;54238;52.278;21.056;2023-12-20T03:29:14;99432.40;;;6.50
67353;BMP180;54238;52.278;21.056;2023-12-20T03:31:43;99429.00;;;6.50
67353;BMP180;54238;52.278;21.056;2023-12-20T03:34:12;99424.40;;;6.50
67353;BMP180;54238;52.278;21.056;2023-12-20T03:36:40;99419.80;;;6.50
67353;BMP180;54238;52.278;21.056;2023-12-20T03:39:07;99411.60;;;6.50
67353;BMP180;54238;52.278;21.056;2023-12-20T03:41:36;99415.20;;;6.50
67353;BMP180;54238;52.278;21.056;2023-12-20T03:44:05;99410.80;;;6.50
67353;BMP180;54238;52.278;21.056;2023-12-20T03:46:38;99399.80;;;6.50
67353;BMP180;54238;52.278;21.056;2023-12-20T03:49:09;99408.80;;;6.44
67353;BMP180;54238;52.278;21.056;2023-12-20T03:51:41;99409.00;;;6.42
67353;BMP180;54238;52.278;21.056;2023-12-20T03:54:11;99405.60;;;6.40
67353;BMP180;54238;52.278;21.056;2023-12-20T03:56:37;99406.80;;;6.40
67353;BMP180;54238;52.278;21.056;2023-12-20T03:59:07;99413.20;;;6.40
67353;BMP180;54238;52.278;21.056;2023-12-20T04:01:34;99404.20;;;6.40
67353;BMP180;54238;52.278;21.056;2023-12-20T04:04:03;99412.60;;;6.40
67353;BMP180;54238;52.278;21.056;2023-12-20T04:06:30;99399.40;;;6.40
67353;BMP180;54238;52.278;21.056;2023-12-20T04:09:02;99393.60;;;6.40
67353;BMP180;54238;52.278;21.056;2023-12-20T04:11:34;99394.60;;;6.40
67353;BMP180;54238;52.278;21.056;2023-12-20T04:14:23;99405.00;;;6.40
67353;BMP180;54238;52.278;21.056;2023-12-20T04:16:53;99399.40;;;6.40
67353;BMP180;54238;52.278;21.056;2023-12-20T04:19:23;99398.40;;;6.46
67353;BMP180;54238;52.278;21.056;2023-12-20T04:21:53;99399.80;;;6.48
67353;BMP180;54238;52.278;21.056;2023-12-20T04:24:25;99402.00;;;6.48
67353;BMP180;54238;52.278;21.056;2023-12-20T04:26:52;99407.80;;;6.50
67353;BMP180;54238;52.278;21.056;2023-12-20T04:29:19;99397.80;;;6.50
67353;BMP180;54238;52.278;21.056;2023-12-20T04:31:50;99398.00;;;6.50
67353;BMP180;54238;52.278;21.056;2023-12-20T04:34:24;99406.00;;;6.50
67353;BMP180;54238;52.278;21.056;2023-12-20T04:36:56;99402.40;;;6.50
67353;BMP180;54238;52.278;21.056;2023-12-20T04:39:25;99392.20;;;6.50
67353;BMP180;54238;52.278;21.056;2023-12-20T04:41:56;99395.00;;;6.50
67353;BMP180;54238;52.278;21.056;2023-12-20T04:44:23;99399.80;;;6.50
67353;BMP180;54238;52.278;21.056;2023-12-20T04:46:53;99407.00;;;6.50
67353;BMP180;54238;52.278;21.056;2023-12-20T04:49:22;99407.20;;;6.50
67353;BMP180;54238;52.278;21.056;2023-12-20T04:51:54;99410.40;;;6.50
67353;BMP180;54238;52.278;21.056;2023-12-20T04:54:24;99404.40;;;6.50
67353;BMP180;54238;52.278;21.056;2023-12-20T04:56:53;99408.40;;;6.50
67353;BMP180;54238;52.278;21.056;2023-12-20T04:59:20;99406.60;;;6.50
67353;BMP180;54238;52.278;21.056;2023-12-20T05:01:50;99405.60;;;6.50
67353;BMP180;54238;52.278;21.056;2023-12-20T05:04:19;99407.00;;;6.46
67353;BMP180;54238;52.278;21.056;2023-12-20T05:06:52;99405.60;;;6.40
67353;BMP180;54238;52.278;21.056;2023-12-20T05:09:21;99398.20;;;6.44
67353;BMP180;54238;52.278;21.056;2023-12-20T05:11:50;99395.00;;;6.40
67353;BMP180;54238;52.278;21.056;2023-12-20T05:14:17;99392.00;;;6.40
67353;BMP180;54238;52.278;21.056;2023-12-20T05:16:46;99396.60;;;6.40
67353;BMP180;54238;52.278;21.056;2023-12-20T05:19:13;99390.00;;;6.40
67353;BMP180;54238;52.278;21.056;2023-12-20T05:21:40;99384.80;;;6.40
67353;BMP180;54238;52.278;21.056;2023-12-20T05:24:12;99382.80;;;6.40
67353;BMP180;54238;52.278;21.056;2023-12-20T05:26:39;99381.80;;;6.40
67353;BMP180;54238;52.278;21.056;2023-12-20T05:29:06;99385.00;;;6.40
67353;BMP180;54238;52.278;21.056;2023-12-20T05:31:33;99380.40;;;6.40
67353;BMP180;54238;52.278;21.056;2023-12-20T05:34:05;99380.60;;;6.40
67353;BMP180;54238;52.278;21.056;2023-12-20T05:36:32;99379.00;;;6.40
67353;BMP180;54238;52.278;21.056;2023-12-20T05:38:58;99385.60;;;6.40
67353;BMP180;54238;52.278;21.056;2023-12-20T05:41:31;99378.00;;;6.40
67353;BMP180;54238;52.278;21.056;2023-12-20T05:44:00;99377.60;;;6.40
67353;BMP180;54238;52.278;21.056;2023-12-20T05:46:31;99379.00;;;6.40
67353;BMP180;54238;52.278;21.056;2023-12-20T05:49:01;99382.00;;;6.38
67353;BMP180;54238;52.278;21.056;2023-12-20T05:51:29;99381.80;;;6.30
67353;BMP180;54238;52.278;21.056;2023-12-20T05:53:59;99368.60;;;6.30
67353;BMP180;54238;52.278;21.056;2023-12-20T05:56:28;99371.40;;;6.30
67353;BMP180;54238;52.278;21.056;2023-12-20T05:58:55;99370.40;;;6.30
67353;BMP180;54238;52.278;21.056;2023-12-20T06:01:22;99376.00;;;6.30
67353;BMP180;54238;52.278;21.056;2023-12-20T06:03:53;99369.20;;;6.40
67353;BMP180;54238;52.278;21.056;2023-12-20T06:06:20;99370.60;;;6.40
67353;BMP180;54238;52.278;21.056;2023-12-20T06:08:49;99380.40;;;6.40
67353;BMP180;54238;52.278;21.056;2023-12-20T06:11:17;99375.20;;;6.40
67353;BMP180;54238;52.278;21.056;2023-12-20T06:13:46;99378.00;;;6.40
67353;BMP180;54238;52.278;21.056;2023-12-20T06:16:15;99380.00;;;6.40
67353;BMP180;54238;52.278;21.056;2023-12-20T06:18:45;99383.00;;;6.40
67353;BMP180;54238;52.278;21.056;2023-12-20T06:21:16;99378.60;;;6.32
67353;BMP180;54238;52.278;21.056;2023-12-20T06:23:46;99376.80;;;6.36
67353;BMP180;54238;52.278;21.056;2023-12-20T06:26:13;99378.20;;;6.36
67353;BMP180;54238;52.278;21.056;2023-12-20T06:28:42;99379.20;;;6.32
67353;BMP180;54238;52.278;21.056;2023-12-20T06:31:11;99386.00;;;6.30
67353;BMP180;54238;52.278;21.056;2023-12-20T06:33:45;99379.40;;;6.30
67353;BMP180;54238;52.278;21.056;2023-12-20T06:36:13;99375.60;;;6.30
67353;BMP180;54238;52.278;21.056;2023-12-20T06:38:43;99378.80;;;6.30
67353;BMP180;54238;52.278;21.056;2023-12-20T06:41:13;99381.00;;;6.30
67353;BMP180;54238;52.278;21.056;2023-12-20T06:43:43;99376.60;;;6.30
67353;BMP180;54238;52.278;21.056;2023-12-20T06:46:16;99378.00;;;6.30
67353;BMP180;54238;52.278;21.056;2023-12-20T06:48:48;99379.40;;;6.30
67353;BMP180;54238;52.278;21.056;2023-12-20T06:51:20;99381.60;;;6.30
67353;BMP180;54238;52.278;21.056;2023-12-20T06:53:54;99382.00;;;6.30
67353;BMP180;54238;52.278;21.056;2023-12-20T06:56:23;99375.60;;;6.30
67353;BMP180;54238;52.278;21.056;2023-12-20T06:58:57;99384.20;;;6.30
67353;BMP180;54238;52.278;21.056;2023-12-20T07:01:29;99384.40;;;6.30
67353;BMP180;54238;52.278;21.056;2023-12-20T07:03:56;99382.00;;;6.30
67353;BMP180;54238;52.278;21.056;2023-12-20T07:06:23;99381.60;;;6.30
67353;BMP180;54238;52.278;21.056;2023-12-20T07:08:54;99376.20;;;6.30
67353;BMP180;54238;52.278;21.056;2023-12-20T07:11:24;99376.20;;;6.28
67353;BMP180;54238;52.278;21.056;2023-12-20T07:13:58;99374.00;;;6.30
67353;BMP180;54238;52.278;21.056;2023-12-20T07:16:25;99373.80;;;6.30
67353;BMP180;54238;52.278;21.056;2023-12-20T07:18:54;99380.00;;;6.30
67353;BMP180;54238;52.278;21.056;2023-12-20T07:21:21;99381.00;;;6.30
67353;BMP180;54238;52.278;21.056;2023-12-20T07:23:50;99383.00;;;6.30
67353;BMP180;54238;52.278;21.056;2023-12-20T07:26:19;99388.20;;;6.30
67353;BMP180;54238;52.278;21.056;2023-12-20T07:28:52;99388.40;;;6.30
67353;BMP180;54238;52.278;21.056;2023-12-20T07:31:21;99390.40;;;6.30
67353;BMP180;54238;52.278;21.056;2023-12-20T07:33:55;99383.60;;;6.30
67353;BMP180;54238;52.278;21.056;2023-12-20T07:36:27;99386.40;;;6.30
67353;BMP180;54238;52.278;21.056;2023-12-20T07:38:54;99387.40;;;6.30
67353;BMP180;54238;52.278;21.056;2023-12-20T07:41:23;99384.80;;;6.30
67353;BMP180;54238;52.278;21.056;2023-12-20T07:43:52;99380.20;;;6.30
67353;BMP180;54238;52.278;21.056;2023-12-20T07:46:32;99385.20;;;6.30
67353;BMP180;54238;52.278;21.056;2023-12-20T07:48:59;99383.80;;;6.30
67353;BMP180;54238;52.278;21.056;2023-12-20T07:51:29;99388.80;;;6.30
67353;BMP180;54238;52.278;21.056;2023-12-20T07:53:56;99388.00;;;6.30
67353;BMP180;54238;52.278;21.056;2023-12-20T07:56:30;99384.80;;;6.30
67353;BMP180;54238;52.278;21.056;2023-12-20T07:58:57;99380.00;;;6.30
67353;BMP180;54238;52.278;21.056;2023-12-20T08:01:26;99383.40;;;6.30
67353;BMP180;54238;52.278;21.056;2023-12-20T08:03:58;99379.20;;;6.30
67353;BMP180;54238;52.278;21.056;2023-12-20T08:06:25;99380.60;;;6.36
67353;BMP180;54238;52.278;21.056;2023-12-20T08:08:55;99385.20;;;6.40
67353;BMP180;54238;52.278;21.056;2023-12-20T08:11:25;99382.00;;;6.38
67353;BMP180;54238;52.278;21.056;2023-12-20T08:13:52;99383.60;;;6.38
67353;BMP180;54238;52.278;21.056;2023-12-20T08:16:24;99387.20;;;6.34
67353;BMP180;54238;52.278;21.056;2023-12-20T08:18:53;99387.60;;;6.32
67353;BMP180;54238;52.278;21.056;2023-12-20T08:21:24;99383.80;;;6.30
67353;BMP180;54238;52.278;21.056;2023-12-20T08:23:56;99375.40;;;6.30
67353;BMP180;54238;52.278;21.056;2023-12-20T08:26:27;99376.20;;;6.32
67353;BMP180;54238;52.278;21.056;2023-12-20T08:28:59;99375.00;;;6.30
67353;BMP180;54238;52.278;21.056;2023-12-20T08:31:29;99375.20;;;6.32
67353;BMP180;54238;52.278;21.056;2023-12-20T08:33:56;99371.80;;;6.40
67353;BMP180;54238;52.278;21.056;2023-12-20T08:36:25;99374.40;;;6.40
67353;BMP180;54238;52.278;21.056;2023-12-20T08:38:55;99371.60;;;6.40
67353;BMP180;54238;52.278;21.056;2023-12-20T08:41:24;99375.60;;;6.40
67353;BMP180;54238;52.278;21.056;2023-12-20T08:43:58;99373.40;;;6.40
67353;BMP180;54238;52.278;21.056;2023-12-20T08:46:31;99369.20;;;6.40
67353;BMP180;54238;52.278;21.056;2023-12-20T08:48:57;99371.80;;;6.40
67353;BMP180;54238;52.278;21.056;2023-12-20T08:51:27;99375.80;;;6.40
67353;BMP180;54238;52.278;21.056;2023-12-20T08:53:59;99381.80;;;6.40
67353;BMP180;54238;52.278;21.056;2023-12-20T08:56:26;99379.80;;;6.40
67353;BMP180;54238;52.278;21.056;2023-12-20T08:58:58;99377.40;;;6.40
67353;BMP180;54238;52.278;21.056;2023-12-20T09:01:30;99375.80;;;6.40
67353;BMP180;54238;52.278;21.056;2023-12-20T09:03:56;99372.80;;;6.40
67353;BMP180;54238;52.278;21.056;2023-12-20T09:06:31;99367.40;;;6.40
67353;BMP180;54238;52.278;21.056;2023-12-20T09:08:58;99365.00;;;6.40
67353;BMP180;54238;52.278;21.056;2023-12-20T09:11:32;99361.60;;;6.40
67353;BMP180;54238;52.278;21.056;2023-12-20T09:14:03;99360.60;;;6.40
67353;BMP180;54238;52.278;21.056;2023-12-20T09:16:36;99363.00;;;6.40
67353;BMP180;54238;52.278;21.056;2023-12-20T09:19:08;99356.60;;;6.40
67353;BMP180;54238;52.278;21.056;2023-12-20T09:21:39;99351.20;;;6.40
67353;BMP180;54238;52.278;21.056;2023-12-20T09:24:09;99348.00;;;6.40
67353;BMP180;54238;52.278;21.056;2023-12-20T09:26:38;99346.20;;;6.40
67353;BMP180;54238;52.278;21.056;2023-12-20T09:29:08;99348.20;;;6.40
67353;BMP180;54238;52.278;21.056;2023-12-20T09:31:39;99340.20;;;6.38
67353;BMP180;54238;52.278;21.056;2023-12-20T09:34:09;99332.60;;;6.38
67353;BMP180;54238;52.278;21.056;2023-12-20T09:36:35;99328.00;;;6.40
67353;BMP180;54238;52.278;21.056;2023-12-20T09:39:03;99328.40;;;6.40
67353;BMP180;54238;52.278;21.056;2023-12-20T09:41:36;99328.40;;;6.40
67353;BMP180;54238;52.278;21.056;2023-12-20T09:44:08;99328.00;;;6.40
67353;BMP180;54238;52.278;21.056;2023-12-20T09:46:44;99325.40;;;6.40
67353;BMP180;54238;52.278;21.056;2023-12-20T09:49:19;99332.60;;;6.40
67353;BMP180;54238;52.278;21.056;2023-12-20T09:51:50;99322.60;;;6.40
67353;BMP180;54238;52.278;21.056;2023-12-20T09:54:23;99321.80;;;6.40
67353;BMP180;54238;52.278;21.056;2023-12-20T09:56:50;99318.20;;;6.40
67353;BMP180;54238;52.278;21.056;2023-12-20T09:59:21;99317.60;;;6.40
67353;BMP180;54238;52.278;21.056;2023-12-20T10:01:49;99323.00;;;6.40
67353;BMP180;54238;52.278;21.056;2023-12-20T10:04:17;99313.40;;;6.40
67353;BMP180;54238;52.278;21.056;2023-12-20T10:06:56;99313.00;;;6.40
67353;BMP180;54238;52.278;21.056;2023-12-20T10:09:27;99303.00;;;6.40
67353;BMP180;54238;52.278;21.056;2023-12-20T10:11:58;99312.20;;;6.40
67353;BMP180;54238;52.278;21.056;2023-12-20T10:14:25;99312.20;;;6.42
67353;BMP180;54238;52.278;21.056;2023-12-20T10:17:05;99320.20;;;6.40
67353;BMP180;54238;52.278;21.056;2023-12-20T10:19:32;99319.60;;;6.40
67353;BMP180;54238;52.278;21.056;2023-12-20T10:22:00;99322.00;;;6.40
67353;BMP180;54238;52.278;21.056;2023-12-20T10:24:29;99309.20;;;6.40
67353;BMP180;54238;52.278;21.056;2023-12-20T10:27:07;99305.80;;;6.40
67353;BMP180;54238;52.278;21.056;2023-12-20T10:29:42;99309.20;;;6.40
67353;BMP180;54238;52.278;21.056;2023-12-20T10:32:27;99300.20;;;6.40
67353;BMP180;54238;52.278;21.056;2023-12-20T10:34:55;99295.40;;;6.40
67353;BMP180;54238;52.278;21.056;2023-12-20T10:37:28;99291.40;;;6.40
67353;BMP180;54238;52.278;21.056;2023-12-20T10:40:03;99284.00;;;6.42
67353;BMP180;54238;52.278;21.056;2023-12-20T10:42:34;99290.00;;;6.40
67353;BMP180;54238;52.278;21.056;2023-12-20T10:45:07;99281.00;;;6.40
67353;BMP180;54238;52.278;21.056;2023-12-20T10:47:39;99282.40;;;6.40
67353;BMP180;54238;52.278;21.056;2023-12-20T10:50:08;99286.40;;;6.40
67353;BMP180;54238;52.278;21.056;2023-12-20T10:52:39;99291.00;;;6.40
67353;BMP180;54238;52.278;21.056;2023-12-20T10:55:08;99292.40;;;6.40
67353;BMP180;54238;52.278;21.056;2023-12-20T10:57:39;99292.80;;;6.50
67353;BMP180;54238;52.278;21.056;2023-12-20T11:00:13;99289.00;;;6.50
67353;BMP180;54238;52.278;21.056;2023-12-20T11:02:45;99287.80;;;6.50
67353;BMP180;54238;52.278;21.056;2023-12-20T11:05:45;99285.20;;;6.50
67353;BMP180;54238;52.278;21.056;2023-12-20T11:08:38;99274.80;;;6.40
67353;BMP180;54238;52.278;21.056;2023-12-20T11:11:29;99267.00;;;6.40
67353;BMP180;54238;52.278;21.056;2023-12-20T11:14:07;99266.80;;;6.40
67353;BMP180;54238;52.278;21.056;2023-12-20T11:16:43;99264.20;;;6.40
67353;BMP180;54238;52.278;21.056;2023-12-20T11:19:16;99255.20;;;6.40
67353;BMP180;54238;52.278;21.056;2023-12-20T11:21:46;99255.00;;;6.40
67353;BMP180;54238;52.278;21.056;2023-12-20T11:24:18;99245.20;;;6.40
67353;BMP180;54238;52.278;21.056;2023-12-20T11:26:48;99245.20;;;6.44
67353;BMP180;54238;52.278;21.056;2023-12-20T11:29:35;99237.20;;;6.50
67353;BMP180;54238;52.278;21.056;2023-12-20T11:34:53;99239.60;;;6.50
67353;BMP180;54238;52.278;21.056;2023-12-20T11:37:25;99238.80;;;6.50
67353;BMP180;54238;52.278;21.056;2023-12-20T11:40:12;99233.80;;;6.50
67353;BMP180;54238;52.278;21.056;2023-12-20T11:42:45;99231.80;;;6.50
67353;BMP180;54238;52.278;21.056;2023-12-20T11:45:21;99227.40;;;6.50
67353;BMP180;54238;52.278;21.056;2023-12-20T11:47:50;99223.20;;;6.50
67353;BMP180;54238;52.278;21.056;2023-12-20T11:50:24;99223.60;;;6.50
67353;BMP180;54238;52.278;21.056;2023-12-20T11:52:55;99217.20;;;6.50
67353;BMP180;54238;52.278;21.056;2023-12-20T11:55:24;99220.80;;;6.50
67353;BMP180;54238;52.278;21.056;2023-12-20T11:57:58;99219.80;;;6.50
67353;BMP180;54238;52.278;21.056;2023-12-20T12:00:26;99209.60;;;6.50
67353;BMP180;54238;52.278;21.056;2023-12-20T12:03:00;99199.00;;;6.50
67353;BMP180;54238;52.278;21.056;2023-12-20T12:05:35;99198.60;;;6.50
67353;BMP180;54238;52.278;21.056;2023-12-20T12:08:07;99196.40;;;6.50
67353;BMP180;54238;52.278;21.056;2023-12-20T12:10:34;99199.60;;;6.50
67353;BMP180;54238;52.278;21.056;2023-12-20T12:13:04;99208.80;;;6.42
67353;BMP180;54238;52.278;21.056;2023-12-20T12:15:31;99194.20;;;6.40
67353;BMP180;54238;52.278;21.056;2023-12-20T12:18:01;99189.40;;;6.40
67353;BMP180;54238;52.278;21.056;2023-12-20T12:20:36;99195.20;;;6.40
67353;BMP180;54238;52.278;21.056;2023-12-20T12:23:06;99191.60;;;6.40
67353;BMP180;54238;52.278;21.056;2023-12-20T12:25:39;99192.20;;;6.40
67353;BMP180;54238;52.278;21.056;2023-12-20T12:28:08;99182.80;;;6.40
67353;BMP180;54238;52.278;21.056;2023-12-20T12:30:38;99181.40;;;6.40
67353;BMP180;54238;52.278;21.056;2023-12-20T12:33:08;99181.40;;;6.40
67353;BMP180;54238;52.278;21.056;2023-12-20T12:35:35;99173.00;;;6.40
67353;BMP180;54238;52.278;21.056;2023-12-20T12:38:07;99182.00;;;6.40
67353;BMP180;54238;52.278;21.056;2023-12-20T12:40:43;99186.60;;;6.38
67353;BMP180;54238;52.278;21.056;2023-12-20T12:43:12;99181.00;;;6.30
67353;BMP180;54238;52.278;21.056;2023-12-20T12:45:42;99185.00;;;6.30
67353;BMP180;54238;52.278;21.056;2023-12-20T12:48:11;99167.00;;;6.30
67353;BMP180;54238;52.278;21.056;2023-12-20T12:50:40;99169.40;;;6.30
67353;BMP180;54238;52.278;21.056;2023-12-20T12:53:09;99171.60;;;6.30
67353;BMP180;54238;52.278;21.056;2023-12-20T12:55:38;99177.20;;;6.26
67353;BMP180;54238;52.278;21.056;2023-12-20T12:58:08;99177.00;;;6.20
67353;BMP180;54238;52.278;21.056;2023-12-20T13:00:35;99172.80;;;6.20
67353;BMP180;54238;52.278;21.056;2023-12-20T13:03:04;99177.80;;;6.20
67353;BMP180;54238;52.278;21.056;2023-12-20T13:05:34;99177.20;;;6.14
67353;BMP180;54238;52.278;21.056;2023-12-20T13:08:09;99179.80;;;6.20
67353;BMP180;54238;52.278;21.056;2023-12-20T13:10:41;99170.00;;;6.12
67353;BMP180;54238;52.278;21.056;2023-12-20T13:13:12;99169.60;;;6.10
67353;BMP180;54238;52.278;21.056;2023-12-20T13:15:39;99176.80;;;6.10
67353;BMP180;54238;52.278;21.056;2023-12-20T13:18:07;99174.60;;;6.10
67353;BMP180;54238;52.278;21.056;2023-12-20T13:20:36;99176.20;;;6.10
67353;BMP180;54238;52.278;21.056;2023-12-20T13:23:08;99178.60;;;6.10
67353;BMP180;54238;52.278;21.056;2023-12-20T13:25:37;99170.20;;;6.10
67353;BMP180;54238;52.278;21.056;2023-12-20T13:28:07;99175.20;;;6.10
67353;BMP180;54238;52.278;21.056;2023-12-20T13:30:39;99171.40;;;6.10
67353;BMP180;54238;52.278;21.056;2023-12-20T13:33:12;99167.60;;;6.10
67353;BMP180;54238;52.278;21.056;2023-12-20T13:35:39;99169.00;;;6.10
67353;BMP180;54238;52.278;21.056;2023-12-20T13:38:08;99168.40;;;6.10
67353;BMP180;54238;52.278;21.056;2023-12-20T13:40:38;99170.80;;;6.10
67353;BMP180;54238;52.278;21.056;2023-12-20T13:43:07;99158.60;;;6.14
67353;BMP180;54238;52.278;21.056;2023-12-20T13:45:37;99154.80;;;6.20
67353;BMP180;54238;52.278;21.056;2023-12-20T13:48:04;99155.80;;;6.20
67353;BMP180;54238;52.278;21.056;2023-12-20T13:50:31;99159.00;;;6.20
67353;BMP180;54238;52.278;21.056;2023-12-20T13:52:58;99156.60;;;6.18
67353;BMP180;54238;52.278;21.056;2023-12-20T13:55:30;99156.80;;;6.10
67353;BMP180;54238;52.278;21.056;2023-12-20T13:57:59;99161.40;;;6.10
67353;BMP180;54238;52.278;21.056;2023-12-20T14:00:29;99158.60;;;6.10
67353;BMP180;54238;52.278;21.056;2023-12-20T14:02:56;99172.20;;;6.10
67353;BMP180;54238;52.278;21.056;2023-12-20T14:05:23;99165.00;;;6.10
67353;BMP180;54238;52.278;21.056;2023-12-20T14:07:54;99151.80;;;6.02
67353;BMP180;54238;52.278;21.056;2023-12-20T14:10:21;99148.20;;;6.00
67353;BMP180;54238;52.278;21.056;2023-12-20T14:12:48;99147.00;;;6.04
67353;BMP180;54238;52.278;21.056;2023-12-20T14:15:20;99148.60;;;6.02
67353;BMP180;54238;52.278;21.056;2023-12-20T14:17:47;99155.00;;;6.00
67353;BMP180;54238;52.278;21.056;2023-12-20T14:20:20;99160.20;;;6.00
67353;BMP180;54238;52.278;21.056;2023-12-20T14:22:50;99164.20;;;6.00
67353;BMP180;54238;52.278;21.056;2023-12-20T14:25:19;99164.00;;;6.00
67353;BMP180;54238;52.278;21.056;2023-12-20T14:27:53;99164.60;;;6.00
67353;BMP180;54238;52.278;21.056;2023-12-20T14:30:22;99170.60;;;6.00